Ana Sayfa
METAR-TAF:

METAR-TAF

Havaalanları :

Sandefjord, Norveç

Enlem: 59-12N, Boylam: 010-16E, yükseklik: 8 m

Güncel hava durumu gözlemi

Rapor saat 05:20 UTC de 38 dakika önce yapıldı.
Rüzgar güneybatıdan 5 kt
Sıcaklık 4°C
Nem 60%
Basınç 1008 hPa
Görüş mesafesi 10 km veya daha fazla
1500 m altında bulut yok ve kümülonimbus yok

METAR: ENTO 010520Z 22005KT CAVOK 04/M03 Q1008 NOSIG

Saat: 07:58 (05:58 UTC)

Tahmin

Ayın 01'si saat 00 UTC'den ayın 01'si saat 24 UTC'ye kadar geçerli Tahmin
Rüzgar batı/güneybatıdan 8 kt
Görüş mesafesi 10 km veya daha fazla
1500 m altında bulut yok ve kümülonimbus yok

TAF: ENTO 0100/0124 24008KT CAVOK

4.000'den fazla havaalanı için hava durumu gözlemleri ve tahminleri (METAR ve TAF raporları).

Kullanılabilir istasyonlar harita üzerinde sarı ve kırmızı noktalarla gösterilir.

İstasyonun adını görmek için fareyi noktanın üzerinde gezdirin.

Sonrasında hava gözlem ve tahminlerini görmek için tıklayın.

Haritayı değiştirmek için: yaklaştırmak için siyah artı işaretli yeşil düğmeye ve uzaklaştırmak için de eksi işaretli düğmeye hızla tıklayın; bitişik haritalar için yeşil okları kullanın.


METAR-TAF: